Gilberts, Illinois
Current Conditions -  °F | °C
As of 5:52 AM on Monday 22 Dec 2014 (Local Time) from KDPA Reporting Station
Overcast Overcast  
Wind Chill: 27°   Ceiling: 3500
Heat Index: 33°   Visibility: 7mi
Dew Point: 27°   Wind: 7mph
Humidity: 78%   Direction: 150°SSE
Pressure: 29.92"   Gusts: NA
Location:  42.1°N, 88.37°W
Report Text: KDPA 221152Z 15006KT 7SM BKN035 OVC050 01/M03 A2992 RMK AO2 SLP140 T00061028 10006 21006 56010
Loading
Personal Weather Stations






























Interactive Weather Map New forecast layout! Learn more

10-Day Weather Forecast

Advertisements
Track Severe Weather on mobile